Time;durP1;ratioP1;P1;durP2;ratioP2;P2;SDS_P1;SDS_P2;PMS_P1;PMS_P2;Temp;Humidity;BMP_temperature;BMP_pressure;BME280_temperature;BME280_humidity;BME280_pressure;Samples;Min_cycle;Max_cycle;Signal;HPM_P1;HPM_P2
2021/07/14 00:02:22;;;;;;;1.67;1.52;;;15.70;99.90;;;;;;5073108;28;20043;-71
2021/07/14 00:04:49;;;;;;;1.98;1.77;;;15.70;99.90;;;;;;5072660;28;20025;-70
2021/07/14 00:07:14;;;;;;;1.73;1.60;;;15.60;99.90;;;;;;5054662;28;20024;-72
2021/07/14 00:09:40;;;;;;;2.75;1.55;;;15.60;99.90;;;;;;5072835;28;20675;-71
2021/07/14 00:12:08;;;;;;;1.27;1.17;;;15.60;99.90;;;;;;5072506;28;20055;-71
2021/07/14 00:17:29;;;;;;;3.63;1.75;;;15.60;99.90;;;;;;5074282;28;20043;-71
2021/07/14 00:22:40;;;;;;;7.43;1.45;;;15.50;99.90;;;;;;5078718;28;20035;-70
2021/07/14 00:25:09;;;;;;;5.50;1.88;;;15.50;99.90;;;;;;5079180;28;20058;-71
2021/07/14 00:27:39;;;;;;;1.88;1.60;;;15.40;99.90;;;;;;5079645;28;20028;-71
2021/07/14 00:30:09;;;;;;;4.00;1.65;;;15.50;99.90;;;;;;5075369;28;20082;-72
2021/07/14 00:32:35;;;;;;;2.05;1.48;;;15.50;99.90;;;;;;5054915;28;20135;-72
2021/07/14 00:35:01;;;;;;;5.60;1.88;;;15.50;99.90;;;;;;5073272;28;20032;-71
2021/07/14 00:37:26;;;;;;;1.90;1.73;;;15.40;99.90;;;;;;5072606;28;20050;-71
2021/07/14 00:39:55;;;;;;;3.17;1.60;;;15.40;99.90;;;;;;5072029;28;20462;-71
2021/07/14 00:42:24;;;;;;;2.75;1.88;;;15.40;99.90;;;;;;5072348;28;20486;-71
2021/07/14 00:44:50;;;;;;;2.30;1.50;;;15.30;99.90;;;;;;5090435;28;20076;-71
2021/07/14 00:47:22;;;;;;;2.17;1.98;;;15.30;99.90;;;;;;5082563;28;20025;-71
2021/07/14 00:49:48;;;;;;;4.60;1.92;;;15.30;99.90;;;;;;5073137;28;20103;-72
2021/07/14 00:52:14;;;;;;;1.83;1.70;;;15.20;99.90;;;;;;5072487;28;20025;-71
2021/07/14 00:54:42;;;;;;;3.85;1.90;;;15.20;99.90;;;;;;5072423;28;20466;-71
2021/07/14 00:57:08;;;;;;;2.17;1.92;;;15.20;99.90;;;;;;5071917;28;20028;-72
2021/07/14 00:59:33;;;;;;;2.22;2.08;;;15.10;99.90;;;;;;5071936;28;20093;-71
2021/07/14 01:01:59;;;;;;;1.83;1.70;;;15.00;99.90;;;;;;5072072;28;20021;-71
2021/07/14 01:04:31;;;;;;;3.92;1.63;;;15.10;99.90;;;;;;5071675;28;20083;-71
2021/07/14 01:07:11;;;;;;;4.53;1.67;;;15.20;99.90;;;;;;5072179;28;20024;-72
2021/07/14 01:09:56;;;;;;;4.38;2.10;;;15.30;99.90;;;;;;5071966;28;20031;-71
2021/07/14 01:12:29;;;;;;;1.95;1.85;;;15.20;99.90;;;;;;5071992;28;20056;-72
2021/07/14 01:15:04;;;;;;;3.58;2.38;;;15.30;99.90;;;;;;5071984;28;20104;-72
2021/07/14 01:17:33;;;;;;;3.47;2.20;;;15.20;99.90;;;;;;5071844;28;20032;-72
2021/07/14 01:20:17;;;;;;;2.85;2.08;;;15.20;99.90;;;;;;5070647;28;20035;-72
2021/07/14 01:22:52;;;;;;;2.00;1.80;;;15.30;99.90;;;;;;5073014;28;20103;-72
2021/07/14 01:25:37;;;;;;;2.10;1.90;;;15.30;99.90;;;;;;5054312;28;20436;-72
2021/07/14 01:28:05;;;;;;;5.07;1.85;;;15.30;99.90;;;;;;5071113;28;20436;-72
2021/07/14 01:30:30;;;;;;;6.10;1.60;;;15.20;99.90;;;;;;5071689;28;20128;-72
2021/07/14 01:32:58;;;;;;;4.03;1.98;;;15.20;99.90;;;;;;5072039;28;20066;-71
2021/07/14 01:35:31;;;;;;;4.68;2.30;;;15.30;99.90;;;;;;5071222;28;20040;-71
2021/07/14 01:37:58;;;;;;;2.13;1.92;;;15.20;99.90;;;;;;5071344;28;20044;-71
2021/07/14 01:40:24;;;;;;;2.03;1.92;;;15.10;99.90;;;;;;5071923;28;20021;-72
2021/07/14 01:42:57;;;;;;;6.00;2.28;;;15.00;99.90;;;;;;5071437;28;20025;-71
2021/07/14 01:45:34;;;;;;;4.50;2.00;;;15.00;99.90;;;;;;5071415;28;20029;-71
2021/07/14 01:48:01;;;;;;;3.60;1.77;;;15.20;99.90;;;;;;5071227;28;20028;-71
2021/07/14 01:50:32;;;;;;;4.13;1.75;;;15.10;99.90;;;;;;5073595;28;20103;-70
2021/07/14 01:52:59;;;;;;;1.95;1.63;;;15.10;99.90;;;;;;5075011;28;20394;-71
2021/07/14 01:55:26;;;;;;;2.25;1.77;;;15.20;99.90;;;;;;5075324;28;20031;-72
2021/07/14 01:57:54;;;;;;;3.03;1.90;;;15.20;99.90;;;;;;5074815;28;20303;-71
2021/07/14 02:00:20;;;;;;;1.90;1.70;;;15.20;99.90;;;;;;5074934;28;20531;-71
2021/07/14 02:02:53;;;;;;;5.50;1.70;;;15.30;99.90;;;;;;5075000;28;20031;-72
2021/07/14 02:05:20;;;;;;;4.38;1.77;;;15.30;99.90;;;;;;5074779;28;20163;-72
2021/07/14 02:07:46;;;;;;;2.17;1.70;;;15.50;99.90;;;;;;5074971;28;20481;-71
2021/07/14 02:10:13;;;;;;;3.30;1.83;;;15.50;99.90;;;;;;5071009;28;20015;-71
2021/07/14 02:12:43;;;;;;;2.17;1.83;;;15.50;99.90;;;;;;5097787;28;20072;-70
2021/07/14 02:15:11;;;;;;;5.38;1.85;;;15.60;99.90;;;;;;5080636;28;20100;-72
2021/07/14 02:17:43;;;;;;;2.78;1.92;;;15.60;99.90;;;;;;5075024;28;20036;-71
2021/07/14 02:20:14;;;;;;;3.28;2.15;;;15.50;99.90;;;;;;5074893;28;20094;-71
2021/07/14 02:22:39;;;;;;;4.70;2.00;;;15.50;99.90;;;;;;5057376;28;20573;-71
2021/07/14 02:25:06;;;;;;;3.00;1.85;;;15.40;99.90;;;;;;5074861;28;20116;-70
2021/07/14 02:27:32;;;;;;;2.53;1.90;;;15.40;99.90;;;;;;5074700;28;20107;-71
2021/07/14 02:29:58;;;;;;;3.72;2.05;;;15.30;99.90;;;;;;5079695;28;20040;-73
2021/07/14 02:32:24;;;;;;;2.40;2.20;;;15.40;99.90;;;;;;5084918;28;20050;-71
2021/07/14 02:34:52;;;;;;;3.00;2.22;;;15.30;99.90;;;;;;5074893;28;20029;-72
2021/07/14 02:37:47;;;;;;;1.92;1.80;;;15.30;99.90;;;;;;5073992;28;20074;-72
2021/07/14 02:40:16;;;;;;;2.05;1.85;;;15.20;99.90;;;;;;5063172;28;20036;-72
2021/07/14 02:42:44;;;;;;;2.88;2.00;;;15.20;99.90;;;;;;5074057;28;20150;-72
2021/07/14 02:45:10;;;;;;;3.33;1.95;;;15.20;99.90;;;;;;5074141;28;20020;-71
2021/07/14 02:47:38;;;;;;;2.88;1.77;;;15.20;99.90;;;;;;5073415;28;20052;-71
2021/07/14 02:50:26;;;;;;;3.58;1.77;;;15.20;99.90;;;;;;5073930;28;20031;-71
2021/07/14 02:52:55;;;;;;;2.28;1.95;;;15.10;99.90;;;;;;5074048;28;20258;-72
2021/07/14 02:55:24;;;;;;;3.38;2.00;;;15.10;99.90;;;;;;5073862;28;20047;-72
2021/07/14 02:57:54;;;;;;;3.85;1.90;;;15.10;99.90;;;;;;5073837;28;20226;-73
2021/07/14 03:00:20;;;;;;;4.55;3.20;;;15.00;99.90;;;;;;5073810;28;20482;-71
2021/07/14 03:02:47;;;;;;;6.68;1.95;;;15.10;99.90;;;;;;5073118;28;20453;-71
2021/07/14 03:05:14;;;;;;;2.45;2.25;;;15.10;99.90;;;;;;5073626;28;20020;-71
2021/07/14 03:07:41;;;;;;;4.00;2.10;;;15.00;99.90;;;;;;5073564;28;20051;-71
2021/07/14 03:10:07;;;;;;;4.22;2.22;;;15.00;99.90;;;;;;5073501;28;20065;-71
2021/07/14 03:12:34;;;;;;;2.72;1.98;;;15.10;99.90;;;;;;5055844;28;20021;-71
2021/07/14 03:15:04;;;;;;;4.57;1.70;;;15.10;99.90;;;;;;5073516;28;20052;-71
2021/07/14 03:17:31;;;;;;;2.35;2.15;;;15.10;99.90;;;;;;5073312;28;20101;-71
2021/07/14 03:19:58;;;;;;;5.03;2.38;;;15.10;99.90;;;;;;5073503;28;20033;-71
2021/07/14 03:22:24;;;;;;;5.97;2.47;;;15.20;99.90;;;;;;5073388;28;20158;-71
2021/07/14 03:24:51;;;;;;;3.45;2.15;;;15.00;99.90;;;;;;5073353;28;20458;-70
2021/07/14 03:27:17;;;;;;;3.40;1.90;;;15.00;99.90;;;;;;5072965;28;20028;-71
2021/07/14 03:29:44;;;;;;;4.28;2.13;;;15.00;99.90;;;;;;5073410;28;20117;-72
2021/07/14 03:32:11;;;;;;;2.85;2.30;;;15.00;99.90;;;;;;5073072;28;20448;-71
2021/07/14 03:34:37;;;;;;;6.22;2.83;;;15.10;99.90;;;;;;5073093;28;20021;-72
2021/07/14 03:37:07;;;;;;;3.72;2.17;;;15.00;99.90;;;;;;5072986;28;20429;-72
2021/07/14 03:39:34;;;;;;;4.90;2.50;;;15.10;99.90;;;;;;5072921;28;20035;-71
2021/07/14 03:42:01;;;;;;;3.10;2.90;;;15.10;99.90;;;;;;5072952;28;20021;-71
2021/07/14 03:44:28;;;;;;;2.63;2.03;;;15.10;99.90;;;;;;5072985;28;20033;-71
2021/07/14 03:46:54;;;;;;;8.45;2.50;;;15.20;99.90;;;;;;5072840;28;20495;-71
2021/07/14 03:49:20;;;;;;;2.53;2.17;;;15.20;99.90;;;;;;5107601;23;20146;-70
2021/07/14 03:51:47;;;;;;;4.90;2.20;;;15.20;99.90;;;;;;5092218;28;20017;-71
2021/07/14 03:54:14;;;;;;;5.00;2.38;;;15.20;99.90;;;;;;5093015;28;20055;-70
2021/07/14 03:56:40;;;;;;;9.68;2.00;;;15.20;99.90;;;;;;5093140;28;20020;-71
2021/07/14 03:59:06;;;;;;;2.88;2.28;;;15.30;99.90;;;;;;5092204;28;20055;-72
2021/07/14 04:01:32;;;;;;;4.10;2.25;;;15.40;99.90;;;;;;5092147;28;20028;-71
2021/07/14 04:03:59;;;;;;;2.30;2.00;;;15.40;99.90;;;;;;5092022;28;20031;-71
2021/07/14 04:06:31;;;;;;;4.20;2.10;;;15.40;99.90;;;;;;5091615;28;20092;-72
2021/07/14 04:09:19;;;;;;;2.53;2.33;;;15.40;99.90;;;;;;5075485;28;20016;-72
2021/07/14 04:11:46;;;;;;;3.97;1.77;;;15.50;99.90;;;;;;5073073;28;20086;-72
2021/07/14 04:14:12;;;;;;;5.05;2.45;;;15.50;99.90;;;;;;5070866;28;20025;-72
2021/07/14 04:16:38;;;;;;;2.50;2.28;;;15.40;99.90;;;;;;5072904;28;20040;-71
2021/07/14 04:19:04;;;;;;;7.40;2.33;;;15.40;99.90;;;;;;5072518;28;20043;-72
2021/07/14 04:21:30;;;;;;;5.20;2.60;;;15.40;99.90;;;;;;5056234;28;20056;-71
2021/07/14 04:23:56;;;;;;;7.53;3.00;;;15.40;99.90;;;;;;5089161;28;20044;-71
2021/07/14 04:26:22;;;;;;;4.75;2.25;;;15.40;99.90;;;;;;5086597;28;20081;-72
2021/07/14 04:28:48;;;;;;;3.38;2.53;;;15.40;99.90;;;;;;5082239;28;20045;-72
2021/07/14 04:31:13;;;;;;;6.65;2.70;;;15.30;99.90;;;;;;5078395;28;20203;-72
2021/07/14 04:33:41;;;;;;;3.95;2.90;;;15.40;99.90;;;;;;5058505;28;20028;-71
2021/07/14 04:36:10;;;;;;;6.32;3.13;;;15.30;99.90;;;;;;5079911;28;20021;-71
2021/07/14 04:38:36;;;;;;;5.00;3.03;;;15.30;99.90;;;;;;5078014;28;20028;-72
2021/07/14 04:41:06;;;;;;;8.18;2.92;;;15.30;99.90;;;;;;5072935;28;20055;-73
2021/07/14 04:43:32;;;;;;;3.83;2.97;;;15.40;99.90;;;;;;5074049;28;20434;-72
2021/07/14 04:45:58;;;;;;;6.38;2.92;;;15.40;99.90;;;;;;5073015;28;20028;-73
2021/07/14 04:48:27;;;;;;;4.50;2.72;;;15.50;99.90;;;;;;5055586;28;20032;-72
2021/07/14 04:50:52;;;;;;;4.70;2.72;;;15.40;99.90;;;;;;5073391;28;20115;-72
2021/07/14 04:53:18;;;;;;;6.32;2.42;;;15.50;99.90;;;;;;5072411;28;20059;-72
2021/07/14 04:55:44;;;;;;;3.25;2.17;;;15.60;99.90;;;;;;5072369;28;20042;-71
2021/07/14 04:58:10;;;;;;;2.50;2.00;;;15.60;99.90;;;;;;5071287;28;20020;-72
2021/07/14 05:00:36;;;;;;;4.35;1.92;;;15.50;99.90;;;;;;5054779;28;20024;-71
2021/07/14 05:03:02;;;;;;;3.00;2.30;;;15.60;99.90;;;;;;5072166;28;20027;-72
2021/07/14 05:05:27;;;;;;;8.82;1.92;;;15.70;99.90;;;;;;5073597;28;20612;-72
2021/07/14 05:07:53;;;;;;;3.70;2.10;;;15.70;99.90;;;;;;5071771;28;20029;-71
2021/07/14 05:10:24;;;;;;;2.35;1.98;;;15.70;99.90;;;;;;5072033;28;20025;-71
2021/07/14 05:12:51;;;;;;;2.42;1.98;;;15.80;99.90;;;;;;5072175;28;20017;-73
2021/07/14 05:15:16;;;;;;;4.13;1.80;;;15.80;99.90;;;;;;5071932;28;20477;-73
2021/07/14 05:17:43;;;;;;;8.07;3.17;;;15.80;99.90;;;;;;5071053;28;20032;-71
2021/07/14 05:20:09;;;;;;;2.75;2.17;;;15.90;99.90;;;;;;5070561;28;20481;-72
2021/07/14 05:22:35;;;;;;;6.35;2.15;;;16.00;99.90;;;;;;5071704;28;20033;-71
2021/07/14 05:25:01;;;;;;;2.25;1.73;;;16.00;99.90;;;;;;5073324;28;20040;-71
2021/07/14 05:27:26;;;;;;;7.53;4.03;;;16.00;99.90;;;;;;5057868;28;20021;-71
2021/07/14 05:29:52;;;;;;;6.10;2.00;;;16.10;99.90;;;;;;5075505;28;20031;-72
2021/07/14 05:32:18;;;;;;;6.25;3.45;;;16.00;99.90;;;;;;5058326;28;20519;-72
2021/07/14 05:34:44;;;;;;;2.20;2.10;;;16.00;99.90;;;;;;5075969;28;20028;-72
2021/07/14 05:37:09;;;;;;;2.72;2.47;;;16.10;99.90;;;;;;5076013;28;20024;-73
2021/07/14 05:39:35;;;;;;;4.78;2.00;;;16.20;99.90;;;;;;5075349;28;20393;-71
2021/07/14 05:42:02;;;;;;;2.92;2.63;;;16.10;99.90;;;;;;5057808;28;20028;-72
2021/07/14 05:44:28;;;;;;;7.30;2.50;;;16.20;99.90;;;;;;5079270;28;20020;-71
2021/07/14 05:46:54;;;;;;;3.95;2.50;;;16.20;99.90;;;;;;5079178;28;20169;-72
2021/07/14 05:49:19;;;;;;;2.65;2.08;;;16.20;99.90;;;;;;5074857;28;20393;-71
2021/07/14 05:51:45;;;;;;;7.60;2.40;;;16.20;99.90;;;;;;5058002;28;20025;-72
2021/07/14 05:54:11;;;;;;;2.95;2.63;;;16.20;99.90;;;;;;5076165;28;20080;-72
2021/07/14 05:56:37;;;;;;;8.55;2.08;;;16.20;99.90;;;;;;5075687;28;20037;-73
2021/07/14 05:59:02;;;;;;;12.13;2.97;;;16.30;99.90;;;;;;5075266;28;20028;-73
2021/07/14 06:01:28;;;;;;;8.10;2.78;;;16.30;99.90;;;;;;5074098;28;20389;-73
2021/07/14 06:03:54;;;;;;;4.28;2.13;;;16.30;99.90;;;;;;5073991;28;20488;-72
2021/07/14 06:06:20;;;;;;;4.72;1.90;;;16.30;99.90;;;;;;5074770;28;20025;-72
2021/07/14 06:08:45;;;;;;;7.82;2.03;;;16.30;99.90;;;;;;5074545;28;20039;-72
2021/07/14 06:11:11;;;;;;;7.43;2.20;;;16.50;99.90;;;;;;5075689;28;20017;-73
2021/07/14 06:13:36;;;;;;;9.75;2.47;;;16.50;99.90;;;;;;5073846;28;20020;-72
2021/07/14 06:16:03;;;;;;;5.80;2.55;;;16.50;99.90;;;;;;5058276;28;20021;-72
2021/07/14 06:18:28;;;;;;;7.47;2.20;;;16.50;99.90;;;;;;5058093;28;20021;-72
2021/07/14 06:20:54;;;;;;;13.18;2.50;;;16.50;99.90;;;;;;5058733;28;20024;-72
2021/07/14 06:23:20;;;;;;;8.32;2.47;;;16.50;99.90;;;;;;5077793;28;20036;-72
2021/07/14 06:25:45;;;;;;;6.25;2.10;;;16.50;99.90;;;;;;5099130;28;20060;-71
2021/07/14 06:28:13;;;;;;;12.75;2.42;;;16.50;99.90;;;;;;5088053;28;20047;-72
2021/07/14 06:30:42;;;;;;;9.68;1.98;;;16.40;99.90;;;;;;5078351;28;20070;-72
2021/07/14 06:33:09;;;;;;;4.60;1.90;;;16.40;99.90;;;;;;5076754;28;20021;-72
2021/07/14 06:35:35;;;;;;;5.97;2.22;;;16.50;99.90;;;;;;5073720;28;20424;-73
2021/07/14 06:38:00;;;;;;;9.77;2.40;;;16.50;99.90;;;;;;5074096;28;20085;-71
2021/07/14 06:40:26;;;;;;;2.65;1.85;;;16.50;99.90;;;;;;5056467;28;20028;-72
2021/07/14 06:42:52;;;;;;;9.68;2.00;;;16.60;99.90;;;;;;5056001;28;20485;-72
2021/07/14 06:45:18;;;;;;;4.28;1.88;;;16.60;99.90;;;;;;5074497;28;20043;-72
2021/07/14 06:47:43;;;;;;;7.00;2.35;;;16.70;99.90;;;;;;5074456;28;20122;-72
2021/07/14 06:50:11;;;;;;;3.50;2.08;;;16.70;99.90;;;;;;5073196;28;20516;-73
2021/07/14 06:52:38;;;;;;;2.90;2.60;;;16.70;99.90;;;;;;5074717;28;20031;-72
2021/07/14 06:55:05;;;;;;;5.47;2.35;;;16.60;99.90;;;;;;5057166;28;20024;-73
2021/07/14 06:57:31;;;;;;;4.03;2.05;;;16.60;99.90;;;;;;5074585;28;20025;-72
2021/07/14 06:59:56;;;;;;;4.75;1.90;;;16.60;99.90;;;;;;5074618;28;20031;-72
2021/07/14 07:02:22;;;;;;;3.75;2.00;;;16.50;99.90;;;;;;5056714;28;20115;-72
2021/07/14 07:04:48;;;;;;;2.08;1.70;;;16.40;99.90;;;;;;5074977;28;20021;-73
2021/07/14 07:07:13;;;;;;;2.47;2.15;;;16.50;99.90;;;;;;5074790;28;20245;-72
2021/07/14 07:09:39;;;;;;;3.25;1.92;;;16.50;99.90;;;;;;5074439;28;20028;-72
2021/07/14 07:12:05;;;;;;;6.35;2.00;;;16.50;99.90;;;;;;5074757;28;20028;-72
2021/07/14 07:14:30;;;;;;;2.75;1.98;;;16.60;99.90;;;;;;5056188;28;20141;-72
2021/07/14 07:16:56;;;;;;;1.90;1.80;;;16.70;99.90;;;;;;5073969;28;20048;-71
2021/07/14 07:19:21;;;;;;;6.18;2.10;;;16.60;99.90;;;;;;5056215;28;20111;-72
2021/07/14 07:21:48;;;;;;;8.38;2.08;;;16.60;99.90;;;;;;5074077;28;20063;-72
2021/07/14 07:24:14;;;;;;;2.33;2.08;;;16.60;99.90;;;;;;5074286;28;20557;-72
2021/07/14 07:26:40;;;;;;;6.10;2.60;;;16.60;99.90;;;;;;5072582;28;20044;-72
2021/07/14 07:29:06;;;;;;;2.40;1.80;;;16.60;99.90;;;;;;5055707;28;20029;-72
2021/07/14 07:31:34;;;;;;;7.20;2.50;;;16.70;99.90;;;;;;5074364;28;20017;-71
2021/07/14 07:34:00;;;;;;;12.82;2.58;;;16.80;99.90;;;;;;5072492;28;20032;-72
2021/07/14 07:36:26;;;;;;;4.63;2.28;;;16.90;99.90;;;;;;5073748;28;20040;-73
2021/07/14 07:38:53;;;;;;;5.63;2.22;;;16.90;99.90;;;;;;5072138;28;20101;-72
2021/07/14 07:41:20;;;;;;;5.15;2.17;;;17.10;99.90;;;;;;5072619;28;20034;-73
2021/07/14 07:43:45;;;;;;;6.47;2.10;;;17.20;99.90;;;;;;5072907;28;20033;-73
2021/07/14 07:46:11;;;;;;;2.00;1.73;;;17.40;99.90;;;;;;5073538;28;20482;-72
2021/07/14 07:48:37;;;;;;;4.57;2.10;;;17.50;99.90;;;;;;5055394;28;20037;-73
2021/07/14 07:51:07;;;;;;;4.72;2.22;;;17.50;99.90;;;;;;5073333;28;20390;-73
2021/07/14 07:53:33;;;;;;;4.75;2.45;;;17.50;99.90;;;;;;5073567;28;20024;-73
2021/07/14 07:56:00;;;;;;;3.88;2.35;;;17.40;99.90;;;;;;5072852;28;20103;-73
2021/07/14 07:58:25;;;;;;;5.38;2.00;;;17.50;99.90;;;;;;5073035;28;20020;-73
2021/07/14 08:00:52;;;;;;;6.03;2.20;;;17.30;99.90;;;;;;5072089;28;20023;-72
2021/07/14 08:03:17;;;;;;;5.07;2.17;;;17.10;99.90;;;;;;5071985;28;20470;-72
2021/07/14 08:05:43;;;;;;;3.78;2.10;;;17.00;99.90;;;;;;5054788;28;20028;-72
2021/07/14 08:08:09;;;;;;;8.23;3.75;;;17.10;99.90;;;;;;5073551;28;20107;-72
2021/07/14 08:10:35;;;;;;;6.57;2.55;;;17.10;99.90;;;;;;5073268;28;20031;-72
2021/07/14 08:13:02;;;;;;;3.90;2.45;;;17.30;99.90;;;;;;5074271;28;20095;-71
2021/07/14 08:15:27;;;;;;;4.32;2.10;;;17.50;99.90;;;;;;5086293;28;20014;-71
2021/07/14 08:17:53;;;;;;;9.52;2.25;;;17.50;99.90;;;;;;5096713;28;20041;-74
2021/07/14 08:20:19;;;;;;;5.53;2.63;;;17.50;99.90;;;;;;5086538;28;20077;-72
2021/07/14 08:22:44;;;;;;;6.38;3.00;;;17.50;99.90;;;;;;5065635;28;20236;-72
2021/07/14 08:25:11;;;;;;;4.50;2.17;;;17.30;99.90;;;;;;5058793;28;20025;-74
2021/07/14 08:27:37;;;;;;;4.22;2.30;;;17.30;99.90;;;;;;5074763;28;20028;-72
2021/07/14 08:30:05;;;;;;;2.20;2.00;;;17.30;99.90;;;;;;5075947;28;20051;-72
2021/07/14 08:32:30;;;;;;;3.83;2.25;;;17.30;99.90;;;;;;5057758;28;20020;-72
2021/07/14 08:34:57;;;;;;;3.00;2.30;;;17.20;99.90;;;;;;5064064;28;20027;-73
2021/07/14 08:37:23;;;;;;;3.15;2.38;;;17.20;99.90;;;;;;5081364;28;20046;-73
2021/07/14 08:39:51;;;;;;;2.63;2.38;;;17.20;99.90;;;;;;5092886;28;20024;-72
2021/07/14 08:42:18;;;;;;;4.55;2.60;;;17.00;99.90;;;;;;5094871;28;20005;-72
2021/07/14 08:44:44;;;;;;;6.35;2.38;;;16.90;99.90;;;;;;5077182;28;20037;-72
2021/07/14 08:47:11;;;;;;;2.95;2.63;;;17.00;99.90;;;;;;5094128;28;20051;-71
2021/07/14 08:49:42;;;;;;;3.03;2.33;;;17.20;99.90;;;;;;5093510;28;20111;-72
2021/07/14 08:52:08;;;;;;;4.57;2.50;;;17.40;99.90;;;;;;5093944;28;20036;-71
2021/07/14 08:54:37;;;;;;;2.22;2.05;;;17.80;99.90;;;;;;5090034;28;20028;-71
2021/07/14 08:57:04;;;;;;;3.83;2.10;;;17.90;99.90;;;;;;5087532;28;20048;-72
2021/07/14 08:59:30;;;;;;;2.95;1.95;;;18.00;99.90;;;;;;5086718;28;20382;-72
2021/07/14 09:01:55;;;;;;;3.85;2.35;;;18.00;99.90;;;;;;5067491;28;20020;-72
2021/07/14 09:04:21;;;;;;;5.15;2.30;;;18.00;99.90;;;;;;5092211;28;20029;-73
2021/07/14 09:06:46;;;;;;;4.05;2.63;;;18.00;99.90;;;;;;5090374;28;20044;-73
2021/07/14 09:09:12;;;;;;;3.28;3.00;;;18.20;99.90;;;;;;5078002;28;20021;-73
2021/07/14 09:11:54;;;;;;;3.22;2.92;;;18.40;99.90;;;;;;5083039;28;20111;-73
2021/07/14 09:14:33;;;;;;;3.65;2.42;;;18.50;99.90;;;;;;5072461;28;20025;-73
2021/07/14 09:17:22;;;;;;;4.93;2.47;;;18.50;99.90;;;;;;5056993;28;20020;-73
2021/07/14 09:19:47;;;;;;;5.45;2.30;;;18.70;99.90;;;;;;5075794;28;20025;-73
2021/07/14 09:22:25;;;;;;;3.97;2.25;;;19.00;99.90;;;;;;5079842;28;20035;-75
2021/07/14 09:24:57;;;;;;;5.30;2.08;;;19.30;99.90;;;;;;5082674;28;20413;-74
2021/07/14 09:27:28;;;;;;;5.43;2.92;;;19.30;99.90;;;;;;5082186;28;20024;-72
2021/07/14 09:30:09;;;;;;;4.65;2.50;;;19.50;99.90;;;;;;5063784;28;20084;-73
2021/07/14 09:32:55;;;;;;;5.80;2.45;;;19.60;99.90;;;;;;5082825;28;20112;-72
2021/07/14 09:35:28;;;;;;;4.38;2.63;;;19.60;99.90;;;;;;5075961;28;20054;-71
2021/07/14 09:37:55;;;;;;;5.13;2.53;;;19.30;99.90;;;;;;5077520;28;20029;-72
2021/07/14 09:40:21;;;;;;;3.88;2.30;;;19.20;99.90;;;;;;5079505;28;20050;-73
2021/07/14 09:42:57;;;;;;;4.03;2.30;;;19.50;99.90;;;;;;5062103;28;20032;-72
2021/07/14 09:45:44;;;;;;;6.88;2.20;;;19.60;99.90;;;;;;5074511;28;20115;-74
2021/07/14 09:48:10;;;;;;;8.55;3.13;;;19.70;99.90;;;;;;5079970;22;20039;-75
2021/07/14 09:50:41;;;;;;;4.68;2.33;;;19.40;99.90;;;;;;5071087;28;20035;-76
2021/07/14 09:53:10;;;;;;;7.07;2.28;;;19.60;99.90;;;;;;5071621;28;20099;-76
2021/07/14 09:55:37;;;;;;;7.20;2.75;;;19.50;99.90;;;;;;5053183;28;20021;-76
2021/07/14 09:58:30;;;;;;;3.83;2.10;;;19.60;99.90;;;;;;5071203;28;20032;-76
2021/07/14 10:01:05;;;;;;;6.97;2.17;;;20.10;99.90;;;;;;5067746;28;20406;-76
2021/07/14 10:03:36;;;;;;;20.77;3.58;;;20.20;99.90;;;;;;5071189;28;20028;-75
2021/07/14 10:06:11;;;;;;;3.28;2.42;;;20.10;99.90;;;;;;5053004;28;20066;-75
2021/07/14 10:08:48;;;;;;;4.82;2.47;;;19.70;99.90;;;;;;5070789;28;20032;-76
2021/07/14 10:11:18;;;;;;;9.95;3.05;;;19.90;99.90;;;;;;5071291;28;20074;-76
2021/07/14 10:13:55;;;;;;;8.37;2.10;;;19.90;99.90;;;;;;5074648;28;20466;-76
2021/07/14 10:16:22;;;;;;;6.95;2.30;;;20.10;99.90;;;;;;5074092;28;20020;-75
2021/07/14 10:19:16;;;;;;;5.63;2.78;;;20.20;99.90;;;;;;5073866;28;20096;-76
2021/07/14 10:21:49;;;;;;;2.00;1.55;;;20.70;99.90;;;;;;5072109;28;20059;-76
2021/07/14 10:24:18;;;;;;;4.78;1.60;;;21.20;99.90;;;;;;5074321;28;20090;-76
2021/07/14 10:26:47;;;;;;;4.93;1.65;;;20.90;99.90;;;;;;5072839;28;20119;-77
2021/07/14 10:29:13;;;;;;;2.42;1.73;;;20.80;99.90;;;;;;5056632;28;20119;-77
2021/07/14 10:31:39;;;;;;;2.17;1.48;;;21.10;99.90;;;;;;5074248;28;20021;-76
2021/07/14 10:34:07;;;;;;;2.35;1.35;;;21.30;99.90;;;;;;5074305;28;20367;-75
2021/07/14 10:36:36;;;;;;;3.17;1.70;;;21.50;99.90;;;;;;5074279;28;20025;-76
2021/07/14 10:39:14;;;;;;;1.33;1.20;;;21.70;99.90;;;;;;5074010;28;20017;-76
2021/07/14 10:41:41;;;;;;;2.33;1.38;;;21.90;99.90;;;;;;5072824;28;20421;-76
2021/07/14 10:44:07;;;;;;;3.55;1.60;;;22.00;99.90;;;;;;5072898;28;20393;-75
2021/07/14 10:46:35;;;;;;;6.15;1.23;;;22.20;99.90;;;;;;5073698;28;20024;-76
2021/07/14 10:49:04;;;;;;;4.30;1.00;;;22.50;99.90;;;;;;5073793;28;20107;-76
2021/07/14 10:51:31;;;;;;;3.08;1.08;;;22.50;99.90;;;;;;5072534;28;20029;-76
2021/07/14 10:54:03;;;;;;;2.85;1.30;;;22.50;99.90;;;;;;5073823;28;20028;-75
2021/07/14 10:56:35;;;;;;;2.95;1.33;;;22.60;99.90;;;;;;5073621;28;20028;-76
2021/07/14 10:59:02;;;;;;;4.13;1.02;;;22.70;99.90;;;;;;5073358;28;20023;-77
2021/07/14 11:01:49;;;;;;;1.52;1.27;;;22.90;99.90;;;;;;5073556;28;20024;-77
2021/07/14 11:04:27;;;;;;;1.30;0.95;;;22.80;99.90;;;;;;5073827;28;20029;-77
2021/07/14 11:06:57;;;;;;;2.53;1.00;;;22.80;99.90;;;;;;5055733;28;20070;-75
2021/07/14 11:09:40;;;;;;;1.77;1.10;;;22.50;99.90;;;;;;5072310;28;20032;-76
2021/07/14 11:12:30;;;;;;;3.35;1.08;;;22.60;99.90;;;;;;5055881;28;20060;-77
2021/07/14 11:15:00;;;;;;;1.30;1.13;;;22.80;99.90;;;;;;5055693;28;20029;-76
2021/07/14 11:17:31;;;;;;;1.67;1.10;;;22.60;99.90;;;;;;5073724;28;20259;-77
2021/07/14 11:20:12;;;;;;;3.65;0.98;;;22.70;99.90;;;;;;5073352;28;20481;-75
2021/07/14 11:22:44;;;;;;;2.42;1.17;;;22.70;99.90;;;;;;5073188;28;20020;-76
2021/07/14 11:25:24;;;;;;;3.47;1.30;;;22.70;99.90;;;;;;5073296;28;20104;-77
2021/07/14 11:28:09;;;;;;;2.03;0.80;;;22.70;99.90;;;;;;5072223;28;20036;-76
2021/07/14 11:30:38;;;;;;;1.10;1.00;;;22.80;99.90;;;;;;5073370;28;20028;-76
2021/07/14 11:33:04;;;;;;;1.77;1.00;;;23.20;99.90;;;;;;5073337;28;20095;-76
2021/07/14 11:35:45;;;;;;;0.70;0.70;;;23.30;99.90;;;;;;5055447;28;20024;-78
2021/07/14 11:38:17;;;;;;;0.80;0.80;;;23.60;99.90;;;;;;5071988;28;20024;-77
2021/07/14 11:40:48;;;;;;;1.38;0.60;;;23.40;99.90;;;;;;5073000;28;20115;-76
2021/07/14 11:43:17;;;;;;;2.65;1.33;;;23.40;99.90;;;;;;5071208;28;20024;-76
2021/07/14 11:45:47;;;;;;;7.25;2.90;;;23.40;99.90;;;;;;5054855;28;20059;-76
2021/07/14 11:48:15;;;;;;;4.47;1.57;;;23.30;99.90;;;;;;5072934;28;20024;-75
2021/07/14 11:50:48;;;;;;;12.15;3.63;;;23.50;99.90;;;;;;5072834;28;20024;-75
2021/07/14 11:53:33;;;;;;;1.08;0.70;;;23.60;99.90;;;;;;5072772;28;20103;-76
2021/07/14 11:56:09;;;;;;;4.85;1.88;;;23.40;99.90;;;;;;5054787;28;20043;-77
2021/07/14 11:58:57;;;;;;;1.10;0.63;;;23.50;99.90;;;;;;5072462;28;20482;-76
2021/07/14 12:01:25;;;;;;;2.75;0.90;;;23.50;99.90;;;;;;5071370;28;20112;-76
2021/07/14 12:04:04;;;;;;;1.33;0.98;;;23.60;99.90;;;;;;5054948;28;20182;-76
2021/07/14 12:07:14;;;;;;;1.60;1.50;;;23.90;99.90;;;;;;5054508;28;20111;-75
2021/07/14 12:09:44;;;;;;;4.00;1.50;;;23.80;99.90;;;;;;5054407;28;20074;-77
2021/07/14 12:12:21;;;;;;;4.93;2.05;;;23.60;99.90;;;;;;5071035;28;20509;-76
2021/07/14 12:14:49;;;;;;;1.73;0.73;;;23.60;99.90;;;;;;5072057;28;20063;-77
2021/07/14 12:17:16;;;;;;;0.73;0.70;;;23.60;99.90;;;;;;5072347;28;20344;-75
2021/07/14 12:19:47;;;;;;;1.50;0.85;;;23.70;99.90;;;;;;5070732;28;20029;-77
2021/07/14 12:22:17;;;;;;;2.78;1.35;;;23.60;99.90;;;;;;5072575;28;20169;-77
2021/07/14 12:24:44;;;;;;;1.20;0.80;;;23.60;99.90;;;;;;5072003;28;20025;-76
2021/07/14 12:27:16;;;;;;;1.00;0.90;;;23.70;99.90;;;;;;5072595;28;20029;-76
2021/07/14 12:29:50;;;;;;;0.70;0.70;;;23.70;99.90;;;;;;5072066;28;20017;-76
2021/07/14 12:32:15;;;;;;;5.28;1.60;;;23.60;99.60;;;;;;5072098;28;20039;-76
2021/07/14 12:34:46;;;;;;;2.90;0.70;;;23.60;99.90;;;;;;5071391;28;20474;-76
2021/07/14 12:37:12;;;;;;;1.75;0.50;;;23.30;99.90;;;;;;5070996;28;20108;-77
2021/07/14 12:39:38;;;;;;;1.00;0.90;;;23.30;99.90;;;;;;5072066;28;20036;-76
2021/07/14 12:42:07;;;;;;;2.00;0.80;;;23.50;99.90;;;;;;5070636;28;20020;-76
2021/07/14 12:44:34;;;;;;;2.05;0.60;;;23.40;99.90;;;;;;5072147;28;20033;-76
2021/07/14 12:47:16;;;;;;;0.82;0.80;;;23.20;99.90;;;;;;5071982;28;20024;-76
2021/07/14 12:49:47;;;;;;;1.10;0.60;;;23.20;99.90;;;;;;5072138;28;20048;-76
2021/07/14 12:52:18;;;;;;;1.20;0.63;;;23.50;99.90;;;;;;5072080;28;20024;-76
2021/07/14 12:54:46;;;;;;;0.65;0.55;;;23.60;99.90;;;;;;5054230;28;20078;-76
2021/07/14 12:57:18;;;;;;;0.70;0.60;;;23.40;99.90;;;;;;5072448;28;20021;-75
2021/07/14 13:00:07;;;;;;;1.13;0.70;;;23.00;99.90;;;;;;5053637;28;20028;-75
2021/07/14 13:02:37;;;;;;;0.80;0.80;;;23.40;99.90;;;;;;5072118;28;20024;-76